createdAt,value
2018-05-11T00:02:14.412Z,18.10
2018-05-11T00:04:43.350Z,18.20
2018-05-11T00:07:11.527Z,18.10
2018-05-11T00:09:39.728Z,18.20
2018-05-11T00:12:07.905Z,18.10
2018-05-11T00:14:36.090Z,18.10
2018-05-11T00:17:04.258Z,18.10
2018-05-11T00:19:32.432Z,18.10
2018-05-11T00:22:00.605Z,18.00
2018-05-11T00:24:28.781Z,17.90
2018-05-11T00:26:56.949Z,17.90
2018-05-11T00:29:25.125Z,17.90
2018-05-11T00:31:53.627Z,17.90
2018-05-11T00:34:21.812Z,17.90
2018-05-11T00:36:50.746Z,17.80
2018-05-11T00:39:18.936Z,17.80
2018-05-11T00:41:47.110Z,17.80
2018-05-11T00:44:15.285Z,17.80
2018-05-11T00:46:43.451Z,17.80
2018-05-11T00:49:11.624Z,17.80
2018-05-11T00:51:39.793Z,17.80
2018-05-11T00:54:07.991Z,17.80
2018-05-11T00:56:36.164Z,17.80
2018-05-11T00:59:04.353Z,17.80
2018-05-11T01:01:32.516Z,17.80
2018-05-11T01:04:00.693Z,17.70
2018-05-11T01:06:28.876Z,17.70
2018-05-11T01:08:57.055Z,17.60
2018-05-11T01:11:25.262Z,17.70
2018-05-11T01:13:53.433Z,17.70
2018-05-11T01:16:22.369Z,17.70
2018-05-11T01:18:50.531Z,17.70
2018-05-11T01:21:18.713Z,17.70
2018-05-11T01:23:46.878Z,17.70
2018-05-11T01:26:15.053Z,17.70
2018-05-11T01:28:43.252Z,17.80
2018-05-11T01:31:11.418Z,17.80
2018-05-11T01:33:39.608Z,17.90
2018-05-11T01:36:07.792Z,17.90
2018-05-11T01:38:35.965Z,17.80
2018-05-11T01:41:04.131Z,17.90
2018-05-11T01:43:32.313Z,17.90
2018-05-11T01:46:00.492Z,17.90
2018-05-11T01:48:28.680Z,17.90
2018-05-11T01:50:57.618Z,17.90
2018-05-11T01:53:25.777Z,17.80
2018-05-11T01:55:54.323Z,17.80
2018-05-11T01:58:22.500Z,17.90
2018-05-11T02:00:51.441Z,18.00
2018-05-11T02:03:19.620Z,17.90
2018-05-11T02:05:47.788Z,18.00
2018-05-11T02:08:15.986Z,17.90
2018-05-11T02:10:44.157Z,17.90
2018-05-11T02:13:12.337Z,17.90
2018-05-11T02:15:40.533Z,17.90
2018-05-11T02:18:08.708Z,17.90
2018-05-11T02:20:36.889Z,17.90
2018-05-11T02:23:05.074Z,17.90
2018-05-11T02:25:34.009Z,17.80
2018-05-11T02:28:02.181Z,17.80
2018-05-11T02:30:30.352Z,17.90
2018-05-11T02:32:58.527Z,17.80
2018-05-11T02:35:26.712Z,17.80
2018-05-11T02:37:54.881Z,17.80
2018-05-11T02:40:23.058Z,17.70
2018-05-11T02:42:51.257Z,17.80
2018-05-11T02:45:19.432Z,17.80
2018-05-11T02:47:47.601Z,17.70
2018-05-11T02:50:15.770Z,17.70
2018-05-11T02:52:43.959Z,17.70
2018-05-11T02:55:12.121Z,17.70
2018-05-11T02:57:40.289Z,17.60
2018-05-11T03:00:08.468Z,17.70
2018-05-11T03:02:36.654Z,17.70
2018-05-11T03:05:04.831Z,17.70
2018-05-11T03:07:33.021Z,17.60
2018-05-11T03:10:01.190Z,17.60
2018-05-11T03:12:29.398Z,17.60
2018-05-11T03:14:57.580Z,17.60
2018-05-11T03:17:25.765Z,17.60
2018-05-11T03:19:53.965Z,17.60
2018-05-11T03:22:22.136Z,17.60
2018-05-11T03:24:50.305Z,17.60
2018-05-11T03:27:18.486Z,17.60
2018-05-11T03:29:46.683Z,17.50
2018-05-11T03:32:14.886Z,17.50
2018-05-11T03:34:43.842Z,17.40
2018-05-11T03:37:12.027Z,17.30
2018-05-11T03:39:40.206Z,17.40
2018-05-11T03:42:08.398Z,17.40
2018-05-11T03:44:37.339Z,17.40
2018-05-11T03:47:05.530Z,17.40
2018-05-11T03:49:33.706Z,17.40
2018-05-11T03:52:01.883Z,17.40
2018-05-11T03:54:30.384Z,17.40
2018-05-11T03:56:59.334Z,17.40
2018-05-11T03:59:27.535Z,17.30
2018-05-11T04:02:13.468Z,17.40
2018-05-11T04:04:59.501Z,17.40
2018-05-11T04:07:46.454Z,17.40
2018-05-11T04:10:15.396Z,17.50
2018-05-11T04:12:43.569Z,17.40
2018-05-11T04:15:11.757Z,17.50
2018-05-11T04:17:39.939Z,17.50
2018-05-11T04:20:08.121Z,17.50
2018-05-11T04:22:36.302Z,17.50
2018-05-11T04:25:04.505Z,17.50
2018-05-11T04:27:33.473Z,17.40
2018-05-11T04:30:01.656Z,17.40
2018-05-11T04:32:29.830Z,17.50
2018-05-11T04:34:58.025Z,17.50
2018-05-11T04:37:26.976Z,17.50
2018-05-11T04:39:55.161Z,17.50
2018-05-11T04:42:23.370Z,17.50
2018-05-11T04:44:52.309Z,17.60
2018-05-11T04:47:20.489Z,17.50
2018-05-11T04:49:48.698Z,17.60
2018-05-11T04:52:17.656Z,17.60
2018-05-11T04:54:45.837Z,17.50
2018-05-11T04:57:14.065Z,17.60
2018-05-11T04:59:42.993Z,17.60
2018-05-11T05:02:11.173Z,17.50
2018-05-11T05:04:39.353Z,17.60
2018-05-11T05:07:07.529Z,17.60
2018-05-11T05:09:35.738Z,17.60
2018-05-11T05:12:04.682Z,17.60
2018-05-11T05:14:32.864Z,17.50
2018-05-11T05:17:01.049Z,17.60
2018-05-11T05:19:29.249Z,17.60
2018-05-11T05:21:58.211Z,17.60
2018-05-11T05:24:26.409Z,17.60
2018-05-11T05:26:54.586Z,17.60
2018-05-11T05:29:22.760Z,17.60
2018-05-11T05:31:50.934Z,17.60
2018-05-11T05:34:19.125Z,17.70
2018-05-11T05:36:48.064Z,17.70
2018-05-11T05:39:16.332Z,17.60
2018-05-11T05:41:44.460Z,17.70
2018-05-11T05:44:13.401Z,17.70
2018-05-11T05:46:41.574Z,17.70
2018-05-11T05:49:09.758Z,17.70
2018-05-11T05:51:37.944Z,17.70
2018-05-11T05:54:06.120Z,17.80
2018-05-11T05:56:34.502Z,17.80
2018-05-11T05:59:02.673Z,17.90
2018-05-11T06:01:30.849Z,17.90
2018-05-11T06:03:59.051Z,17.90
2018-05-11T06:06:27.995Z,18.00
2018-05-11T06:08:56.983Z,17.90
2018-05-11T06:11:25.166Z,18.00
2018-05-11T06:13:53.370Z,18.10
2018-05-11T06:16:21.547Z,18.10
2018-05-11T06:18:49.729Z,18.10
2018-05-11T06:21:19.404Z,18.20
2018-05-11T06:23:47.593Z,18.20
2018-05-11T06:26:15.768Z,18.30
2018-05-11T06:28:43.947Z,18.40
2018-05-11T06:31:12.117Z,18.40
2018-05-11T06:33:40.318Z,18.40
2018-05-11T06:36:09.276Z,18.50
2018-05-11T06:38:37.462Z,18.50
2018-05-11T06:41:05.633Z,18.60
2018-05-11T06:43:33.810Z,18.60
2018-05-11T06:46:02.038Z,18.60
2018-05-11T06:48:30.965Z,18.70
2018-05-11T06:50:59.144Z,18.70
2018-05-11T06:53:27.354Z,18.80
2018-05-11T06:55:56.361Z,18.90
2018-05-11T06:58:24.522Z,18.80
2018-05-11T07:00:53.461Z,18.90
2018-05-11T07:03:21.642Z,18.80
2018-05-11T07:05:49.834Z,18.90
2018-05-11T07:08:18.009Z,18.90
2018-05-11T07:10:46.197Z,18.90
2018-05-11T07:13:14.384Z,18.90
2018-05-11T07:15:43.329Z,19.10
2018-05-11T07:18:11.509Z,19.10
2018-05-11T07:20:39.737Z,19.20
2018-05-11T07:23:08.682Z,19.50
2018-05-11T07:25:36.940Z,19.50
2018-05-11T07:28:06.568Z,20.00
2018-05-11T07:30:34.761Z,20.00
2018-05-11T07:33:03.030Z,20.30
2018-05-11T07:35:31.960Z,20.70
2018-05-11T07:38:00.903Z,21.00
2018-05-11T07:40:29.079Z,20.90
2018-05-11T07:42:57.265Z,21.20
2018-05-11T07:45:25.588Z,21.40
2018-05-11T07:47:54.541Z,21.80
2018-05-11T07:50:22.760Z,21.70
2018-05-11T07:52:50.938Z,21.90
2018-05-11T07:55:19.118Z,21.90
2018-05-11T07:57:47.285Z,22.10
2018-05-11T08:00:15.467Z,22.10
2018-05-11T08:02:43.659Z,22.20
2018-05-11T08:05:11.840Z,22.30
2018-05-11T08:07:40.017Z,22.40
2018-05-11T08:10:08.314Z,22.60
2018-05-11T08:12:36.493Z,22.70
2018-05-11T08:15:04.685Z,22.80
2018-05-11T08:17:33.646Z,22.70
2018-05-11T08:20:01.826Z,22.60
2018-05-11T08:22:30.053Z,22.80
2018-05-11T08:24:58.231Z,22.90
2018-05-11T08:27:26.397Z,23.00
2018-05-11T08:29:55.375Z,23.10
2018-05-11T08:32:24.912Z,23.00
2018-05-11T08:34:53.089Z,22.90
2018-05-11T08:37:21.281Z,22.90
2018-05-11T08:39:49.454Z,22.90
2018-05-11T08:42:17.624Z,23.00
2018-05-11T08:44:45.844Z,23.00
2018-05-11T08:47:14.804Z,23.10
2018-05-11T08:49:42.980Z,23.10
2018-05-11T08:52:11.152Z,23.20
2018-05-11T08:54:39.383Z,23.20
2018-05-11T08:57:08.332Z,23.30
2018-05-11T08:59:36.537Z,23.20
2018-05-11T09:02:04.713Z,23.20
2018-05-11T09:04:32.881Z,23.40
2018-05-11T09:07:01.073Z,23.20
2018-05-11T09:09:30.005Z,23.30
2018-05-11T09:11:58.188Z,23.20
2018-05-11T09:14:26.505Z,23.20
2018-05-11T09:16:54.697Z,23.00
2018-05-11T09:19:23.658Z,22.90
2018-05-11T09:21:51.834Z,22.90
2018-05-11T09:24:20.025Z,23.00
2018-05-11T09:26:48.975Z,23.20
2018-05-11T09:29:17.152Z,23.20
2018-05-11T09:31:45.365Z,23.50
2018-05-11T09:34:13.506Z,23.70
2018-05-11T09:36:41.677Z,23.90
2018-05-11T09:39:09.844Z,24.00
2018-05-11T09:41:38.011Z,24.20
2018-05-11T09:44:06.228Z,24.30
2018-05-11T09:46:34.397Z,24.40
2018-05-11T09:49:02.581Z,24.70
2018-05-11T09:51:30.760Z,24.80
2018-05-11T09:53:58.928Z,24.90
2018-05-11T09:56:27.105Z,25.10
2018-05-11T09:58:55.288Z,25.30
2018-05-11T10:01:24.236Z,25.30
2018-05-11T10:03:52.418Z,25.20
2018-05-11T10:06:20.597Z,25.30
2018-05-11T10:08:48.789Z,25.30
2018-05-11T10:11:16.957Z,25.40
2018-05-11T10:13:45.138Z,25.70
2018-05-11T10:16:13.311Z,25.90
2018-05-11T10:18:41.648Z,25.90
2018-05-11T10:21:09.814Z,25.90
2018-05-11T10:23:37.985Z,25.80
2018-05-11T10:26:06.163Z,25.80
2018-05-11T10:28:34.380Z,25.80
2018-05-11T10:31:02.526Z,25.80
2018-05-11T10:33:30.737Z,25.50
2018-05-11T10:35:58.921Z,25.50
2018-05-11T10:38:27.096Z,25.80
2018-05-11T10:40:55.277Z,26.40
2018-05-11T10:43:24.214Z,27.30
2018-05-11T10:45:52.405Z,27.20
2018-05-11T10:48:20.605Z,27.30
2018-05-11T10:50:48.819Z,27.50
2018-05-11T10:53:17.020Z,27.60
2018-05-11T10:55:45.191Z,27.80
2018-05-11T10:58:13.364Z,28.30
2018-05-11T11:00:41.549Z,28.30
2018-05-11T11:03:09.714Z,28.60
2018-05-11T11:05:37.888Z,28.90
2018-05-11T11:08:06.065Z,28.60
2018-05-11T11:10:34.254Z,28.80
2018-05-11T11:13:02.434Z,28.20
2018-05-11T11:15:30.603Z,28.10
2018-05-11T11:17:58.780Z,27.80
2018-05-11T11:20:26.993Z,27.60
2018-05-11T11:22:55.938Z,27.50
2018-05-11T11:25:24.192Z,27.50
2018-05-11T11:27:52.360Z,27.60
2018-05-11T11:30:20.528Z,27.80
2018-05-11T11:32:48.708Z,27.50
2018-05-11T11:35:16.899Z,27.50
2018-05-11T11:37:45.062Z,27.50
2018-05-11T11:40:13.225Z,27.50
2018-05-11T11:42:42.171Z,27.30
2018-05-11T11:45:10.343Z,27.20
2018-05-11T11:47:38.630Z,27.30
2018-05-11T11:50:06.724Z,27.50
2018-05-11T11:52:35.661Z,28.60
2018-05-11T11:55:03.832Z,28.50
2018-05-11T11:57:32.112Z,29.00
2018-05-11T12:00:00.628Z,29.20
2018-05-11T12:02:29.794Z,29.40
2018-05-11T12:04:58.125Z,29.70
2018-05-11T12:07:27.071Z,31.00
2018-05-11T12:09:55.932Z,30.90
2018-05-11T12:12:24.186Z,30.60
2018-05-11T12:14:53.835Z,29.40
2018-05-11T12:17:22.012Z,29.30
2018-05-11T12:19:50.201Z,28.90
2018-05-11T12:22:18.378Z,28.50
2018-05-11T12:24:47.438Z,28.20
2018-05-11T12:27:16.132Z,28.10
2018-05-11T12:29:44.296Z,28.00
2018-05-11T12:32:13.377Z,28.00
2018-05-11T12:34:43.380Z,29.50
2018-05-11T12:37:11.585Z,29.50
2018-05-11T12:39:39.757Z,30.00
2018-05-11T12:42:07.934Z,30.20
2018-05-11T12:44:36.117Z,30.80
2018-05-11T12:47:04.300Z,31.70
2018-05-11T12:49:32.477Z,32.40
2018-05-11T12:52:00.653Z,33.30
2018-05-11T12:54:28.837Z,33.80
2018-05-11T12:56:57.008Z,33.30
2018-05-11T12:59:25.188Z,33.00
2018-05-11T13:01:53.353Z,34.80
2018-05-11T13:04:21.519Z,37.40
2018-05-11T13:06:49.694Z,39.00
2018-05-11T13:09:17.868Z,40.30
2018-05-11T13:11:46.046Z,40.50
2018-05-11T13:14:14.299Z,41.00
2018-05-11T13:16:43.186Z,42.10
2018-05-11T13:19:11.357Z,41.90
2018-05-11T13:21:39.521Z,41.40
2018-05-11T13:24:07.697Z,39.70
2018-05-11T13:26:35.873Z,36.60
2018-05-11T13:29:04.053Z,34.20
2018-05-11T13:31:32.230Z,34.60
2018-05-11T13:34:00.409Z,37.00
2018-05-11T13:36:28.753Z,38.20
2018-05-11T13:38:56.897Z,39.80
2018-05-11T13:41:25.073Z,40.80
2018-05-11T13:43:54.013Z,42.00
2018-05-11T13:46:22.183Z,42.00
2018-05-11T13:48:50.380Z,42.20
2018-05-11T13:51:18.586Z,42.40
2018-05-11T13:53:46.757Z,42.70
2018-05-11T13:56:14.933Z,42.30
2018-05-11T13:58:43.881Z,38.20
2018-05-11T14:01:12.105Z,38.10
2018-05-11T14:03:41.052Z,34.00
2018-05-11T14:06:09.221Z,33.90
2018-05-11T14:08:37.397Z,32.30
2018-05-11T14:11:05.565Z,31.00
2018-05-11T14:13:33.743Z,30.10
2018-05-11T14:16:01.916Z,29.30
2018-05-11T14:18:30.082Z,28.80
2018-05-11T14:20:58.257Z,28.40
2018-05-11T14:23:26.498Z,28.10
2018-05-11T14:25:55.442Z,27.60
2018-05-11T14:28:23.627Z,27.50
2018-05-11T14:30:51.818Z,27.40
2018-05-11T14:33:19.986Z,27.20
2018-05-11T14:35:48.163Z,27.10
2018-05-11T14:38:16.332Z,27.10
2018-05-11T14:40:44.514Z,27.20
2018-05-11T14:43:12.684Z,27.20
2018-05-11T14:45:40.859Z,27.30
2018-05-11T14:48:09.810Z,27.40
2018-05-11T14:50:37.973Z,27.40
2018-05-11T14:53:07.172Z,27.30
2018-05-11T14:55:36.113Z,27.10
2018-05-11T14:58:04.319Z,27.10
2018-05-11T15:00:33.272Z,27.30
2018-05-11T15:03:01.453Z,27.30
2018-05-11T15:05:29.617Z,27.40
2018-05-11T15:07:57.799Z,27.40
2018-05-11T15:10:25.979Z,27.10
2018-05-11T15:12:54.142Z,26.80
2018-05-11T15:15:22.320Z,26.70
2018-05-11T15:17:50.489Z,26.70
2018-05-11T15:20:18.674Z,26.60
2018-05-11T15:22:46.839Z,26.80
2018-05-11T15:25:15.007Z,27.40
2018-05-11T15:27:43.184Z,27.80
2018-05-11T15:30:11.354Z,27.60
2018-05-11T15:32:39.527Z,27.50
2018-05-11T15:35:07.702Z,27.30
2018-05-11T15:37:35.887Z,26.90
2018-05-11T15:40:04.070Z,26.70
2018-05-11T15:42:32.251Z,26.50
2018-05-11T15:45:00.434Z,26.30
2018-05-11T15:47:28.615Z,26.20
2018-05-11T15:49:56.793Z,26.00
2018-05-11T15:52:24.963Z,25.80
2018-05-11T15:54:53.151Z,25.60
2018-05-11T15:57:22.116Z,25.50
2018-05-11T15:59:50.290Z,25.50
2018-05-11T16:02:18.458Z,25.70
2018-05-11T16:04:46.648Z,26.00
2018-05-11T16:07:14.833Z,26.50
2018-05-11T16:09:43.016Z,27.20
2018-05-11T16:12:11.952Z,28.20
2018-05-11T16:14:40.122Z,28.10
2018-05-11T16:17:08.311Z,28.60
2018-05-11T16:19:36.488Z,28.80
2018-05-11T16:22:04.661Z,28.90
2018-05-11T16:24:32.841Z,28.90
2018-05-11T16:27:01.782Z,29.00
2018-05-11T16:29:30.716Z,29.00
2018-05-11T16:31:58.887Z,28.90
2018-05-11T16:34:27.059Z,28.80
2018-05-11T16:36:55.407Z,28.50
2018-05-11T16:39:24.340Z,27.90
2018-05-11T16:41:52.523Z,27.80
2018-05-11T16:44:20.725Z,27.90
2018-05-11T16:46:48.931Z,27.60
2018-05-11T16:49:17.093Z,27.30
2018-05-11T16:51:46.067Z,27.10
2018-05-11T16:54:14.239Z,27.00
2018-05-11T16:56:42.408Z,26.80
2018-05-11T16:59:10.650Z,26.70
2018-05-11T17:01:38.836Z,26.50
2018-05-11T17:04:07.005Z,26.50
2018-05-11T17:06:35.186Z,26.30
2018-05-11T17:09:03.373Z,26.00
2018-05-11T17:11:31.546Z,25.70
2018-05-11T17:13:59.757Z,25.70
2018-05-11T17:16:28.724Z,25.70
2018-05-11T17:18:56.889Z,25.60
2018-05-11T17:21:25.054Z,25.70
2018-05-11T17:23:54.001Z,25.40
2018-05-11T17:26:22.949Z,25.10
2018-05-11T17:28:51.155Z,25.00
2018-05-11T17:31:20.102Z,24.70
2018-05-11T17:33:48.278Z,24.60
2018-05-11T17:36:16.455Z,24.50
2018-05-11T17:38:44.629Z,24.20
2018-05-11T17:41:12.804Z,24.10
2018-05-11T17:43:40.967Z,23.80
2018-05-11T17:46:09.152Z,23.70
2018-05-11T17:48:37.329Z,23.50
2018-05-11T17:51:05.542Z,23.40
2018-05-11T17:53:34.508Z,23.20
2018-05-11T17:56:02.688Z,23.20
2018-05-11T17:58:30.855Z,23.10
2018-05-11T18:00:59.020Z,23.00
2018-05-11T18:03:27.192Z,22.90
2018-05-11T18:05:55.357Z,22.80
2018-05-11T18:08:23.564Z,22.60
2018-05-11T18:10:51.753Z,22.50
2018-05-11T18:13:20.696Z,22.30
2018-05-11T18:15:48.878Z,22.20
2018-05-11T18:18:17.066Z,22.20
2018-05-11T18:20:45.260Z,22.10
2018-05-11T18:23:13.442Z,22.00
2018-05-11T18:25:41.635Z,21.90
2018-05-11T18:28:10.577Z,21.80
2018-05-11T18:30:38.761Z,21.70
2018-05-11T18:33:06.934Z,21.80
2018-05-11T18:35:35.105Z,21.70
2018-05-11T18:38:03.310Z,21.60
2018-05-11T18:40:32.257Z,21.50
2018-05-11T18:43:00.431Z,21.40
2018-05-11T18:45:28.629Z,21.40
2018-05-11T18:47:56.797Z,21.40
2018-05-11T18:50:24.977Z,21.20
2018-05-11T18:52:53.987Z,21.20
2018-05-11T18:55:22.175Z,21.10
2018-05-11T18:57:51.364Z,21.10
2018-05-11T19:00:20.334Z,21.00
2018-05-11T19:02:48.515Z,20.90
2018-05-11T19:05:16.687Z,20.90
2018-05-11T19:07:44.860Z,20.80
2018-05-11T19:10:13.037Z,20.80
2018-05-11T19:12:41.229Z,20.70
2018-05-11T19:15:09.411Z,20.70
2018-05-11T19:17:38.376Z,20.50
2018-05-11T19:20:06.545Z,20.40
2018-05-11T19:22:34.723Z,20.50
2018-05-11T19:25:02.926Z,20.40
2018-05-11T19:27:31.874Z,20.30
2018-05-11T19:30:00.045Z,20.20
2018-05-11T19:32:28.272Z,20.30
2018-05-11T19:34:57.218Z,20.20
2018-05-11T19:37:25.391Z,20.10
2018-05-11T19:39:53.566Z,20.10
2018-05-11T19:42:21.749Z,20.10
2018-05-11T19:44:49.936Z,20.00
2018-05-11T19:47:18.145Z,20.00
2018-05-11T19:49:47.100Z,19.80
2018-05-11T19:52:15.274Z,19.80
2018-05-11T19:54:43.445Z,19.80
2018-05-11T19:57:11.689Z,19.70
2018-05-11T19:59:40.606Z,19.60
2018-05-11T20:02:08.784Z,19.60
2018-05-11T20:04:37.012Z,19.60
2018-05-11T20:07:05.205Z,19.60
2018-05-11T20:09:33.375Z,19.50
2018-05-11T20:12:01.563Z,19.40
2018-05-11T20:14:29.757Z,19.40
2018-05-11T20:16:57.930Z,19.30
2018-05-11T20:19:26.141Z,19.30
2018-05-11T20:21:54.349Z,19.20
2018-05-11T20:24:22.529Z,19.20
2018-05-11T20:26:50.738Z,19.10
2018-05-11T20:29:18.953Z,19.10
2018-05-11T20:31:47.897Z,19.00
2018-05-11T20:34:16.074Z,18.90
2018-05-11T20:36:44.248Z,19.00
2018-05-11T20:39:12.424Z,18.90
2018-05-11T20:41:40.694Z,18.90
2018-05-11T20:44:09.600Z,18.90
2018-05-11T20:46:37.807Z,18.80
2018-05-11T20:49:06.759Z,18.80
2018-05-11T20:51:34.941Z,18.80
2018-05-11T20:54:03.119Z,18.80
2018-05-11T20:56:31.297Z,18.70
2018-05-11T20:58:59.485Z,18.70
2018-05-11T21:01:27.683Z,18.60
2018-05-11T21:03:56.622Z,18.60
2018-05-11T21:06:24.834Z,18.50
2018-05-11T21:08:53.013Z,18.50
2018-05-11T21:11:21.957Z,18.40
2018-05-11T21:13:50.175Z,18.40
2018-05-11T21:16:18.378Z,18.40
2018-05-11T21:18:47.324Z,18.40
2018-05-11T21:21:16.286Z,18.40
2018-05-11T21:23:44.481Z,18.30
2018-05-11T21:26:12.661Z,18.30
2018-05-11T21:28:40.842Z,18.30
2018-05-11T21:31:09.012Z,18.30
2018-05-11T21:33:37.314Z,18.20
2018-05-11T21:36:06.171Z,18.20
2018-05-11T21:38:34.361Z,18.20
2018-05-11T21:41:02.608Z,18.10
2018-05-11T21:43:31.501Z,17.90
2018-05-11T21:45:59.694Z,17.90
2018-05-11T21:48:27.896Z,18.00
2018-05-11T21:50:56.091Z,18.00
2018-05-11T21:53:24.280Z,17.90
2018-05-11T21:55:52.467Z,17.90
2018-05-11T21:58:20.641Z,17.80
2018-05-11T22:00:48.823Z,17.80
2018-05-11T22:03:17.001Z,17.90
2018-05-11T22:05:45.183Z,17.80
2018-05-11T22:08:13.356Z,17.80
2018-05-11T22:10:41.550Z,17.80
2018-05-11T22:13:09.736Z,17.70
2018-05-11T22:15:37.933Z,17.70
2018-05-11T22:18:06.877Z,17.70
2018-05-11T22:20:35.054Z,17.70
2018-05-11T22:23:03.229Z,17.70
2018-05-11T22:25:31.405Z,17.60
2018-05-11T22:27:59.596Z,17.60
2018-05-11T22:30:27.775Z,17.50
2018-05-11T22:32:55.986Z,17.50
2018-05-11T22:35:24.184Z,17.50
2018-05-11T22:37:52.375Z,17.40
2018-05-11T22:40:20.554Z,17.40
2018-05-11T22:42:48.732Z,17.40
2018-05-11T22:45:16.916Z,17.30
2018-05-11T22:47:45.108Z,17.30
2018-05-11T22:50:13.287Z,17.30
2018-05-11T22:52:42.233Z,17.30
2018-05-11T22:55:11.193Z,17.20
2018-05-11T22:57:39.366Z,17.20
2018-05-11T23:00:08.390Z,17.10
2018-05-11T23:02:36.571Z,17.10
2018-05-11T23:05:04.749Z,17.10
2018-05-11T23:07:32.921Z,17.10
2018-05-11T23:10:01.101Z,17.00
2018-05-11T23:12:29.289Z,16.90
2018-05-11T23:14:57.480Z,16.80
2018-05-11T23:17:25.655Z,16.80
2018-05-11T23:19:53.829Z,16.80
2018-05-11T23:22:22.007Z,16.70
2018-05-11T23:24:51.055Z,16.70
2018-05-11T23:27:19.162Z,16.60
2018-05-11T23:29:47.344Z,16.70
2018-05-11T23:32:15.528Z,16.70
2018-05-11T23:34:44.478Z,16.60
2018-05-11T23:37:12.657Z,16.50
2018-05-11T23:39:40.919Z,16.60
2018-05-11T23:42:09.092Z,16.60
2018-05-11T23:44:37.268Z,16.60
2018-05-11T23:47:05.444Z,16.50
2018-05-11T23:49:33.621Z,16.50
2018-05-11T23:52:01.797Z,16.50
2018-05-11T23:54:29.981Z,16.50
2018-05-11T23:56:58.153Z,16.50
2018-05-11T23:59:26.337Z,16.60
